Time;durP1;ratioP1;P1;durP2;ratioP2;P2;SDS_P1;SDS_P2;PMS_P1;PMS_P2;Temp;Humidity;BMP_temperature;BMP_pressure;BME280_temperature;BME280_humidity;BME280_pressure;Samples;Min_cycle;Max_cycle;Signal;HPM_P1;HPM_P2
2023/08/31 00:00:15;;;;;;;1.63;1.05;;;13.40;99.90;;;;;;5009187;28;20044;-83
2023/08/31 00:02:42;;;;;;;2.38;0.98;;;13.30;99.90;;;;;;5017326;28;20029;-82
2023/08/31 00:05:08;;;;;;;4.20;2.17;;;13.20;99.90;;;;;;5023310;28;20061;-82
2023/08/31 00:07:34;;;;;;;2.42;0.93;;;13.30;99.90;;;;;;5021690;28;20481;-82
2023/08/31 00:10:06;;;;;;;1.60;1.50;;;13.20;99.90;;;;;;5014894;28;20407;-82
2023/08/31 00:12:32;;;;;;;1.83;1.17;;;13.20;99.90;;;;;;5017766;28;20026;-83
2023/08/31 00:14:58;;;;;;;1.58;1.00;;;13.10;99.90;;;;;;5014163;28;20034;-82
2023/08/31 00:17:25;;;;;;;1.65;1.13;;;13.10;99.90;;;;;;5016108;28;20045;-83
2023/08/31 00:19:51;;;;;;;1.08;0.73;;;13.10;99.90;;;;;;5014232;28;20041;-83
2023/08/31 00:22:17;;;;;;;1.80;1.63;;;13.10;99.90;;;;;;5025261;28;20045;-82
2023/08/31 00:24:43;;;;;;;1.13;1.00;;;13.20;99.90;;;;;;5023471;28;20037;-82
2023/08/31 00:27:10;;;;;;;2.50;1.88;;;13.20;99.90;;;;;;5018881;28;20025;-82
2023/08/31 00:29:38;;;;;;;3.05;0.93;;;13.20;99.90;;;;;;5014648;28;20033;-83
2023/08/31 00:32:05;;;;;;;3.72;1.50;;;13.30;99.90;;;;;;5004068;28;20046;-83
2023/08/31 00:34:32;;;;;;;1.80;0.90;;;13.20;99.90;;;;;;5019230;28;20069;-83
2023/08/31 00:36:59;;;;;;;1.13;0.75;;;13.20;99.90;;;;;;5015838;28;20038;-82
2023/08/31 00:39:28;;;;;;;2.08;1.30;;;13.10;99.90;;;;;;5001190;28;20053;-83
2023/08/31 00:41:54;;;;;;;1.20;1.02;;;13.20;99.90;;;;;;5014426;28;20026;-83
2023/08/31 00:44:21;;;;;;;1.25;0.90;;;13.20;99.90;;;;;;5004286;28;20390;-82
2023/08/31 00:46:48;;;;;;;1.45;1.20;;;13.20;99.90;;;;;;5013746;28;20025;-82
2023/08/31 00:49:15;;;;;;;2.03;1.17;;;13.20;99.90;;;;;;5026110;28;20108;-82
2023/08/31 00:51:42;;;;;;;0.90;0.60;;;13.30;99.90;;;;;;5019289;28;20029;-81
2023/08/31 00:54:09;;;;;;;1.95;1.60;;;13.30;99.90;;;;;;5020309;28;20033;-82
2023/08/31 00:56:36;;;;;;;1.23;1.05;;;13.30;99.90;;;;;;5017006;28;20038;-81
2023/08/31 00:59:02;;;;;;;1.75;1.48;;;13.30;99.90;;;;;;5017301;28;20037;-82
2023/08/31 01:01:49;;;;;;;1.75;1.02;;;13.30;99.90;;;;;;5008375;28;20030;-81
2023/08/31 01:04:27;;;;;;;2.65;2.45;;;13.20;99.90;;;;;;4993635;28;20050;-81
2023/08/31 01:07:11;;;;;;;1.17;0.75;;;13.30;99.90;;;;;;5022856;28;20041;-82
2023/08/31 01:09:51;;;;;;;2.10;1.17;;;13.20;99.90;;;;;;5020794;28;20042;-82
2023/08/31 01:12:29;;;;;;;2.45;1.33;;;13.20;99.90;;;;;;5015283;28;20037;-82
2023/08/31 01:14:59;;;;;;;1.50;1.17;;;13.20;99.90;;;;;;5021745;28;20455;-82
2023/08/31 01:17:28;;;;;;;1.85;1.10;;;13.20;99.90;;;;;;5020742;28;20034;-82
2023/08/31 01:19:57;;;;;;;1.13;0.80;;;13.20;99.90;;;;;;5016718;28;20045;-82
2023/08/31 01:22:40;;;;;;;2.15;0.70;;;13.30;99.90;;;;;;5018363;28;20037;-82
2023/08/31 01:25:09;;;;;;;2.63;1.67;;;13.30;99.90;;;;;;5012695;28;20037;-83
2023/08/31 01:27:36;;;;;;;2.83;1.50;;;13.30;99.90;;;;;;4994727;28;20510;-83
2023/08/31 01:30:04;;;;;;;2.00;1.52;;;13.30;99.90;;;;;;5018718;28;20037;-82
2023/08/31 01:32:31;;;;;;;2.20;1.55;;;13.30;99.90;;;;;;4995444;28;20064;-84
2023/08/31 01:34:58;;;;;;;1.67;0.88;;;13.40;99.90;;;;;;5011458;28;20045;-83
2023/08/31 01:37:35;;;;;;;1.42;1.00;;;13.30;99.90;;;;;;5016955;28;20034;-83
2023/08/31 01:40:24;;;;;;;1.38;0.88;;;13.20;99.90;;;;;;5019951;28;20037;-83
2023/08/31 01:42:51;;;;;;;1.67;0.68;;;13.00;99.90;;;;;;5016830;28;20398;-81
2023/08/31 01:45:20;;;;;;;2.22;1.02;;;13.00;99.90;;;;;;5000148;28;20033;-83
2023/08/31 01:47:47;;;;;;;1.45;0.93;;;12.80;99.90;;;;;;5014867;28;20460;-82
2023/08/31 01:50:13;;;;;;;0.95;0.70;;;12.80;99.90;;;;;;5003615;28;20053;-83
2023/08/31 01:52:39;;;;;;;1.75;1.38;;;12.70;99.90;;;;;;5011453;28;20136;-82
2023/08/31 01:55:06;;;;;;;1.38;1.27;;;12.80;99.90;;;;;;4995108;28;20043;-82
2023/08/31 01:57:33;;;;;;;2.25;1.58;;;12.70;99.90;;;;;;5020305;28;20046;-82
2023/08/31 02:00:09;;;;;;;1.92;0.95;;;12.70;99.90;;;;;;5018856;28;20045;-83
2023/08/31 02:02:42;;;;;;;0.88;0.60;;;12.70;99.90;;;;;;5016004;28;20045;-82
2023/08/31 02:05:08;;;;;;;2.22;1.77;;;12.60;99.90;;;;;;5016583;28;20050;-83
2023/08/31 02:07:34;;;;;;;1.17;0.70;;;12.50;99.90;;;;;;5015800;28;20053;-83
2023/08/31 02:10:02;;;;;;;2.00;0.60;;;12.40;99.90;;;;;;5012398;28;20034;-83
2023/08/31 02:12:29;;;;;;;1.05;0.93;;;12.40;99.90;;;;;;5012924;28;20030;-83
2023/08/31 02:14:55;;;;;;;1.02;0.70;;;12.30;99.90;;;;;;5021193;28;20030;-83
2023/08/31 02:17:21;;;;;;;1.55;1.05;;;12.30;99.90;;;;;;5019697;28;20030;-82
2023/08/31 02:19:47;;;;;;;0.98;0.60;;;12.30;1.00;;;;;;5018328;28;20038;-83
2023/08/31 02:22:15;;;;;;;2.47;1.05;;;12.30;1.00;;;;;;5023211;28;20050;-83
2023/08/31 02:24:41;;;;;;;2.28;1.00;;;12.30;1.00;;;;;;5013083;28;20467;-83
2023/08/31 02:27:07;;;;;;;1.52;1.05;;;12.40;1.00;;;;;;5015655;28;20033;-83
2023/08/31 02:29:33;;;;;;;2.72;1.35;;;12.30;1.00;;;;;;5017157;28;20042;-83
2023/08/31 02:32:00;;;;;;;2.80;2.45;;;12.30;1.00;;;;;;5018200;28;20035;-83
2023/08/31 02:34:27;;;;;;;1.92;1.17;;;12.30;1.00;;;;;;5029007;28;20041;-83
2023/08/31 02:36:53;;;;;;;2.38;1.88;;;12.20;1.00;;;;;;5019423;28;20450;-83
2023/08/31 02:39:19;;;;;;;2.88;2.33;;;12.20;1.00;;;;;;5008581;28;20045;-82
2023/08/31 02:41:47;;;;;;;4.22;1.75;;;12.20;1.00;;;;;;5025833;28;20387;-82
2023/08/31 02:44:13;;;;;;;0.70;0.52;;;12.00;1.00;;;;;;5020519;28;20382;-83
2023/08/31 02:46:39;;;;;;;1.90;1.30;;;11.90;1.00;;;;;;5018318;28;20025;-83
2023/08/31 02:49:05;;;;;;;1.33;0.98;;;12.00;1.00;;;;;;5020562;28;20038;-83
2023/08/31 02:51:31;;;;;;;2.05;1.65;;;11.90;1.00;;;;;;5017367;28;20056;-83
2023/08/31 02:53:57;;;;;;;2.00;0.95;;;12.00;1.00;;;;;;5022030;28;20033;-83
2023/08/31 02:56:23;;;;;;;1.65;0.90;;;11.90;1.00;;;;;;5025430;28;20375;-83
2023/08/31 02:58:50;;;;;;;2.15;1.35;;;11.90;1.00;;;;;;5027004;28;20040;-83
2023/08/31 03:01:16;;;;;;;1.52;0.80;;;11.70;1.00;;;;;;5024033;28;20422;-83
2023/08/31 03:03:47;;;;;;;1.25;0.60;;;11.60;1.00;;;;;;5014626;28;20037;-83
2023/08/31 03:06:14;;;;;;;2.13;0.70;;;11.50;1.00;;;;;;5027319;28;20054;-83
2023/08/31 03:08:41;;;;;;;1.90;1.50;;;11.40;1.00;;;;;;5021557;28;20038;-83
2023/08/31 03:11:07;;;;;;;2.60;2.33;;;11.40;1.00;;;;;;5024356;28;20041;-84
2023/08/31 03:13:35;;;;;;;4.07;2.30;;;11.50;1.00;;;;;;5024883;28;20018;-83
2023/08/31 03:16:02;;;;;;;2.45;1.25;;;11.40;1.00;;;;;;5038737;28;20037;-83
2023/08/31 03:18:29;;;;;;;1.50;1.38;;;11.40;1.00;;;;;;5022207;28;20049;-84
2023/08/31 03:20:56;;;;;;;2.75;1.40;;;11.40;1.00;;;;;;5013284;28;20651;-84
2023/08/31 03:23:24;;;;;;;2.20;1.95;;;11.50;1.00;;;;;;5011624;28;20041;-84
2023/08/31 03:25:50;;;;;;;2.45;1.75;;;11.50;1.00;;;;;;5004830;28;20041;-84
2023/08/31 03:28:17;;;;;;;3.78;2.25;;;11.40;1.00;;;;;;5003296;28;20037;-84
2023/08/31 03:30:45;;;;;;;1.15;0.80;;;11.40;1.00;;;;;;5007643;28;20056;-84
2023/08/31 03:33:12;;;;;;;2.75;2.25;;;11.40;1.00;;;;;;5018368;28;20053;-83
2023/08/31 03:35:38;;;;;;;3.25;1.70;;;11.30;1.00;;;;;;5013799;28;20478;-83
2023/08/31 03:38:04;;;;;;;4.35;2.28;;;11.30;1.00;;;;;;5009852;28;20045;-82
2023/08/31 03:40:34;;;;;;;2.08;1.80;;;11.40;1.00;;;;;;5013857;28;20053;-83
2023/08/31 03:43:00;;;;;;;1.83;1.02;;;11.40;1.00;;;;;;5012679;28;20041;-82
2023/08/31 03:45:26;;;;;;;3.10;1.98;;;11.40;1.00;;;;;;5011989;28;20127;-83
2023/08/31 03:47:54;;;;;;;2.97;2.47;;;11.40;1.00;;;;;;5018722;28;20037;-83
2023/08/31 03:50:20;;;;;;;2.60;1.80;;;11.40;1.00;;;;;;5004746;28;20045;-83
2023/08/31 03:52:46;;;;;;;2.25;1.90;;;11.40;1.00;;;;;;5019210;28;20033;-83
2023/08/31 03:55:12;;;;;;;1.17;1.00;;;11.30;1.00;;;;;;5015279;28;20368;-83
2023/08/31 03:57:39;;;;;;;1.15;0.95;;;11.20;1.00;;;;;;5006505;28;20042;-83
2023/08/31 04:00:13;;;;;;;6.70;1.67;;;11.30;30.40;;;;;;5011653;28;20045;-83
2023/08/31 04:02:44;;;;;;;3.90;2.00;;;11.30;54.40;;;;;;5022433;28;20049;-83
2023/08/31 04:05:14;;;;;;;3.63;2.67;;;11.10;28.40;;;;;;5013361;28;20050;-83
2023/08/31 04:07:43;;;;;;;2.63;1.67;;;11.00;16.10;;;;;;5003921;28;20048;-83
2023/08/31 04:10:09;;;;;;;1.48;1.38;;;10.90;4.40;;;;;;5019742;28;20490;-83
2023/08/31 04:12:35;;;;;;;2.53;1.88;;;10.80;1.00;;;;;;5021215;28;20041;-83
2023/08/31 04:15:04;;;;;;;1.90;1.63;;;10.80;2.90;;;;;;5030959;28;20034;-83
2023/08/31 04:17:30;;;;;;;3.45;2.45;;;10.80;18.70;;;;;;5012252;28;20459;-82
2023/08/31 04:19:56;;;;;;;6.72;1.52;;;10.80;31.50;;;;;;5011843;28;20057;-83
2023/08/31 04:22:22;;;;;;;11.93;2.38;;;10.80;49.90;;;;;;5009766;28;20034;-82
2023/08/31 04:24:48;;;;;;;1.98;1.85;;;10.80;61.70;;;;;;5023179;28;20037;-83
2023/08/31 04:27:14;;;;;;;3.88;2.20;;;10.90;71.50;;;;;;5019670;28;20041;-83
2023/08/31 04:29:40;;;;;;;3.97;1.65;;;10.90;85.00;;;;;;5012714;28;20402;-82
2023/08/31 04:32:06;;;;;;;2.47;2.28;;;10.90;97.50;;;;;;5022753;28;20463;-83
2023/08/31 04:34:33;;;;;;;2.85;2.38;;;11.00;99.90;;;;;;4984511;28;20053;-83
2023/08/31 04:36:59;;;;;;;2.35;2.03;;;11.10;99.90;;;;;;5016367;28;20026;-83
2023/08/31 04:39:26;;;;;;;2.13;1.88;;;11.10;99.90;;;;;;5016806;28;20029;-83
2023/08/31 04:41:52;;;;;;;1.42;1.20;;;11.10;99.90;;;;;;5013217;28;20041;-83
2023/08/31 04:44:18;;;;;;;2.17;1.83;;;11.00;99.90;;;;;;5016562;28;20026;-83
2023/08/31 04:46:45;;;;;;;3.95;2.05;;;11.00;99.90;;;;;;5015893;28;20042;-83
2023/08/31 04:49:11;;;;;;;1.98;1.50;;;11.00;99.90;;;;;;5006123;28;20026;-83
2023/08/31 04:51:39;;;;;;;3.22;2.10;;;11.10;99.90;;;;;;5011652;28;20379;-83
2023/08/31 04:54:05;;;;;;;2.70;2.10;;;11.10;99.90;;;;;;5006183;28;20030;-84
2023/08/31 04:56:33;;;;;;;3.80;2.80;;;11.00;99.90;;;;;;5016459;28;20033;-83
2023/08/31 04:59:00;;;;;;;3.15;1.52;;;11.10;99.90;;;;;;5014150;28;20040;-83
2023/08/31 05:01:26;;;;;;;2.13;1.65;;;11.20;99.90;;;;;;5023452;28;20034;-83
2023/08/31 05:03:52;;;;;;;1.45;1.02;;;11.20;99.90;;;;;;5019490;28;20034;-83
2023/08/31 05:06:20;;;;;;;3.60;2.33;;;11.30;99.90;;;;;;5004957;28;20053;-83
2023/08/31 05:08:49;;;;;;;1.65;1.33;;;11.40;99.90;;;;;;5021109;28;20049;-83
2023/08/31 05:11:15;;;;;;;3.40;3.10;;;11.40;99.90;;;;;;5020128;28;20034;-83
2023/08/31 05:13:42;;;;;;;2.47;2.35;;;11.40;99.90;;;;;;5003822;28;20048;-83
2023/08/31 05:16:09;;;;;;;2.60;2.10;;;11.40;99.90;;;;;;5022116;28;20383;-84
2023/08/31 05:18:35;;;;;;;3.03;1.90;;;11.40;99.90;;;;;;5018537;28;20466;-83
2023/08/31 05:21:03;;;;;;;3.78;2.00;;;11.50;99.90;;;;;;5015281;28;20038;-83
2023/08/31 05:23:29;;;;;;;2.25;1.13;;;11.50;99.90;;;;;;5024039;28;20037;-83
2023/08/31 05:26:00;;;;;;;1.60;1.50;;;11.50;99.90;;;;;;5017746;28;20034;-82
2023/08/31 05:28:26;;;;;;;1.60;1.15;;;11.50;99.90;;;;;;5022981;28;20041;-82
2023/08/31 05:30:56;;;;;;;2.33;2.15;;;11.60;99.90;;;;;;5026847;28;20048;-82
2023/08/31 05:33:22;;;;;;;2.53;1.20;;;11.70;99.90;;;;;;5026703;28;20068;-83
2023/08/31 05:35:48;;;;;;;2.35;1.75;;;11.70;99.90;;;;;;4999427;28;20042;-84
2023/08/31 05:38:14;;;;;;;1.38;1.20;;;11.70;99.90;;;;;;5015382;28;20038;-84
2023/08/31 05:40:45;;;;;;;3.08;1.98;;;11.70;99.90;;;;;;5020551;28;20470;-84
2023/08/31 05:43:15;;;;;;;1.63;1.35;;;11.80;99.90;;;;;;5016795;28;20379;-84
2023/08/31 05:45:42;;;;;;;2.45;1.17;;;11.90;99.90;;;;;;5019233;28;20045;-84
2023/08/31 05:48:08;;;;;;;2.75;1.83;;;11.90;99.90;;;;;;5014347;28;20461;-85
2023/08/31 05:50:38;;;;;;;1.75;1.10;;;11.90;99.90;;;;;;5004270;28;20041;-84
2023/08/31 05:53:05;;;;;;;16.52;2.22;;;12.00;93.20;;;;;;5012959;28;20243;-85
2023/08/31 05:55:32;;;;;;;2.97;2.75;;;12.00;71.70;;;;;;5017524;28;20029;-85
2023/08/31 05:57:58;;;;;;;1.77;1.00;;;12.10;37.90;;;;;;5025870;28;20068;-84
2023/08/31 06:00:24;;;;;;;4.75;1.38;;;12.20;13.50;;;;;;5024054;28;20052;-85
2023/08/31 06:02:51;;;;;;;2.03;1.33;;;12.30;1.00;;;;;;5018024;28;20037;-85
2023/08/31 06:05:17;;;;;;;0.95;0.80;;;12.30;1.00;;;;;;5020699;28;20426;-85
2023/08/31 06:07:43;;;;;;;1.08;0.98;;;12.40;1.00;;;;;;5018236;28;20041;-85
2023/08/31 06:10:10;;;;;;;1.65;1.48;;;12.40;1.00;;;;;;5015500;28;20046;-85
2023/08/31 06:12:36;;;;;;;3.05;2.08;;;12.40;1.00;;;;;;5018277;28;20045;-85
2023/08/31 06:15:03;;;;;;;1.90;1.40;;;12.50;99.90;;;;;;5028952;28;20041;-85
2023/08/31 06:17:29;;;;;;;3.17;2.13;;;12.80;99.90;;;;;;5023693;28;20041;-85
2023/08/31 06:19:55;;;;;;;2.72;0.90;;;13.20;99.90;;;;;;5018857;28;20482;-85
2023/08/31 06:22:24;;;;;;;2.17;1.42;;;13.70;99.90;;;;;;5020799;28;20040;-85
2023/08/31 06:24:51;;;;;;;1.85;1.10;;;14.20;99.90;;;;;;5003600;28;20048;-86
2023/08/31 06:27:18;;;;;;;1.95;1.17;;;14.80;99.90;;;;;;5020346;28;20033;-86
2023/08/31 06:29:44;;;;;;;3.30;1.98;;;15.30;99.90;;;;;;5017260;28;20053;-87
2023/08/31 06:32:10;;;;;;;3.85;0.70;;;15.70;1.00;;;;;;5001409;28;20050;-87
2023/08/31 06:34:36;;;;;;;2.13;0.82;;;16.10;99.90;;;;;;5023281;28;20041;-86
2023/08/31 06:37:03;;;;;;;2.33;0.80;;;16.20;99.90;;;;;;5018452;28;20494;-87
2023/08/31 06:39:29;;;;;;;2.50;1.15;;;15.90;99.90;;;;;;5021208;28;20048;-88
2023/08/31 06:41:56;;;;;;;2.70;2.03;;;15.50;99.90;;;;;;5024341;28;20033;-88
2023/08/31 06:44:30;;;;;;;1.17;0.55;;;15.20;99.90;;;;;;5009162;28;20042;-87
2023/08/31 06:46:56;;;;;;;1.20;0.60;;;15.00;99.90;;;;;;5032111;28;20386;-91
2023/08/31 06:49:23;;;;;;;1.65;0.60;;;14.90;99.90;;;;;;5017368;28;20034;-89
2023/08/31 06:51:50;;;;;;;1.58;0.77;;;14.90;99.90;;;;;;5011243;28;20034;-89
2023/08/31 06:54:16;;;;;;;2.17;0.75;;;14.80;99.90;;;;;;5018008;28;20378;-89
2023/08/31 06:56:42;;;;;;;1.42;1.05;;;15.10;99.90;;;;;;5032926;28;20467;-89
2023/08/31 06:59:08;;;;;;;2.10;0.60;;;15.60;99.90;;;;;;5015025;28;20563;-91
2023/08/31 07:01:34;;;;;;;2.83;0.95;;;15.80;99.90;;;;;;5004963;28;20025;-89
2023/08/31 07:04:01;;;;;;;1.40;0.82;;;16.30;99.90;;;;;;5000954;28;20061;-89
2023/08/31 07:06:27;;;;;;;3.10;1.73;;;16.60;99.90;;;;;;5014482;28;20630;-90
2023/08/31 07:08:53;;;;;;;2.95;1.17;;;16.50;99.90;;;;;;5021743;28;20033;-89
2023/08/31 07:11:19;;;;;;;2.97;0.80;;;16.20;99.90;;;;;;5024616;28;20038;-89
2023/08/31 07:13:45;;;;;;;3.58;1.88;;;16.00;99.90;;;;;;5019614;28;20409;-88
2023/08/31 07:16:11;;;;;;;2.22;0.60;;;15.70;99.90;;;;;;5000892;28;20038;-89
2023/08/31 07:18:37;;;;;;;1.45;0.90;;;15.60;99.90;;;;;;5006759;28;20049;-89
2023/08/31 07:21:07;;;;;;;4.40;1.00;;;15.60;99.90;;;;;;5029911;28;20038;-89
2023/08/31 07:23:33;;;;;;;2.08;0.85;;;15.50;99.90;;;;;;5002955;28;20042;-89
2023/08/31 07:26:04;;;;;;;1.20;0.50;;;15.50;99.90;;;;;;5036661;28;20036;-89
2023/08/31 07:28:31;;;;;;;3.58;0.98;;;15.40;99.90;;;;;;5025796;28;20037;-89
2023/08/31 07:31:07;;;;;;;1.63;0.65;;;15.60;99.90;;;;;;5008334;28;20045;-90
2023/08/31 07:33:35;;;;;;;1.23;0.63;;;15.70;99.90;;;;;;5033712;28;20033;-89
2023/08/31 07:36:03;;;;;;;2.67;0.80;;;15.70;99.90;;;;;;5008137;28;20046;-90
2023/08/31 07:38:30;;;;;;;1.50;1.05;;;15.80;99.90;;;;;;5017361;28;20048;-90
2023/08/31 07:40:56;;;;;;;1.02;0.47;;;15.90;99.90;;;;;;5023741;28;20045;-91
2023/08/31 07:43:23;;;;;;;2.08;0.85;;;16.00;97.60;;;;;;5022448;28;20029;-89
2023/08/31 07:45:49;;;;;;;2.17;0.75;;;16.20;73.30;;;;;;5021388;28;20051;-89
2023/08/31 07:48:15;;;;;;;2.28;0.80;;;16.20;86.40;;;;;;4997152;28;20046;-89
2023/08/31 07:50:42;;;;;;;1.30;1.20;;;16.70;22.40;;;;;;5005696;28;20041;-89
2023/08/31 07:53:12;;;;;;;4.10;0.80;;;17.00;1.00;;;;;;5020800;28;20386;-90
2023/08/31 07:55:39;;;;;;;4.03;1.50;;;17.20;1.00;;;;;;5010831;28;20033;-88
2023/08/31 07:58:06;;;;;;;1.75;0.70;;;17.50;1.00;;;;;;5017201;28;20409;-91
2023/08/31 08:00:32;;;;;;;1.65;0.52;;;17.70;1.00;;;;;;5019059;28;20053;-92
2023/08/31 08:02:59;;;;;;;2.42;0.73;;;17.80;1.00;;;;;;5027794;28;20037;-90
2023/08/31 08:05:25;;;;;;;1.70;0.60;;;17.90;1.00;;;;;;5030928;28;20061;-91
2023/08/31 08:07:52;;;;;;;1.92;0.60;;;18.10;1.00;;;;;;5028683;28;20033;-90
2023/08/31 08:10:19;;;;;;;1.10;0.40;;;18.10;99.90;;;;;;5022313;28;20038;-90
2023/08/31 08:12:46;;;;;;;2.22;0.75;;;17.70;99.90;;;;;;5021558;28;20493;-91
2023/08/31 08:15:13;;;;;;;2.30;0.40;;;17.30;99.90;;;;;;5023451;28;20526;-90
2023/08/31 08:17:39;;;;;;;1.05;0.40;;;17.20;99.90;;;;;;5020105;28;20364;-90
2023/08/31 08:20:07;;;;;;;1.50;0.52;;;17.30;99.90;;;;;;5022002;28;20491;-91
2023/08/31 08:22:33;;;;;;;2.70;0.60;;;17.40;99.90;;;;;;5006903;28;20033;-89
2023/08/31 08:25:00;;;;;;;1.02;0.30;;;17.20;99.90;;;;;;5025729;28;20034;-90
2023/08/31 08:27:28;;;;;;;1.17;0.40;;;17.20;99.90;;;;;;5025217;28;20037;-89
2023/08/31 08:29:54;;;;;;;1.77;0.40;;;17.30;99.90;;;;;;5022656;28;20038;-92
2023/08/31 08:32:21;;;;;;;2.00;0.45;;;17.30;99.90;;;;;;5016395;28;20038;-90
2023/08/31 08:34:47;;;;;;;1.45;0.47;;;17.40;99.90;;;;;;5026462;28;20037;-91
2023/08/31 08:37:13;;;;;;;2.45;0.77;;;17.30;99.90;;;;;;5023254;28;20034;-90
2023/08/31 08:39:41;;;;;;;1.58;0.40;;;17.20;99.90;;;;;;5019923;28;20435;-92
2023/08/31 08:42:11;;;;;;;1.20;0.90;;;17.30;99.90;;;;;;5022426;28;20375;-90
2023/08/31 08:44:38;;;;;;;1.63;0.65;;;17.70;99.90;;;;;;5005148;28;20045;-89
2023/08/31 08:47:04;;;;;;;1.45;0.47;;;18.00;99.90;;;;;;5000476;28;20034;-90
2023/08/31 08:49:32;;;;;;;1.23;0.47;;;18.20;99.90;;;;;;5013117;28;20038;-91
2023/08/31 08:51:59;;;;;;;2.10;0.73;;;18.50;99.90;;;;;;4988179;28;20041;-91
2023/08/31 08:54:27;;;;;;;4.80;0.77;;;18.60;99.90;;;;;;5015072;28;20033;-90
2023/08/31 08:56:53;;;;;;;1.45;0.40;;;18.70;99.90;;;;;;5023362;28;20026;-90
2023/08/31 08:59:20;;;;;;;1.55;0.52;;;18.90;99.90;;;;;;5015351;28;20053;-90
2023/08/31 09:01:46;;;;;;;1.85;0.50;;;19.10;99.90;;;;;;5019607;28;20038;-89
2023/08/31 09:04:13;;;;;;;1.15;0.40;;;19.00;99.90;;;;;;5023638;28;20033;-88
2023/08/31 09:06:41;;;;;;;1.63;0.43;;;19.00;99.90;;;;;;5027522;28;20052;-89
2023/08/31 09:09:11;;;;;;;2.03;0.40;;;19.30;99.90;;;;;;5010726;28;20045;-92
2023/08/31 09:11:37;;;;;;;2.57;0.40;;;19.40;99.90;;;;;;5009834;28;20044;-90
2023/08/31 09:14:15;;;;;;;0.95;0.60;;;19.00;99.90;;;;;;5018213;28;20060;-91
2023/08/31 09:16:46;;;;;;;0.68;0.55;;;18.50;99.90;;;;;;5018296;28;20049;-91
2023/08/31 09:19:27;;;;;;;1.80;0.68;;;18.20;99.90;;;;;;5022848;28;20046;-90
2023/08/31 09:21:56;;;;;;;1.75;0.43;;;17.80;99.90;;;;;;5013620;28;20045;-90
2023/08/31 09:24:23;;;;;;;1.95;0.43;;;17.60;99.90;;;;;;5017823;28;20034;-91
2023/08/31 09:29:45;;;;;;;1.40;0.60;;;17.80;99.90;;;;;;4998467;28;20057;-89
2023/08/31 09:32:17;;;;;;;1.00;0.50;;;17.80;99.90;;;;;;4990959;28;20045;-89
2023/08/31 09:34:43;;;;;;;0.70;0.30;;;17.90;99.90;;;;;;4984967;28;20035;-91
2023/08/31 09:37:10;;;;;;;1.50;1.05;;;18.20;99.90;;;;;;4984301;28;20030;-89
2023/08/31 09:39:37;;;;;;;0.63;0.50;;;19.10;99.90;;;;;;4983009;28;20039;-89
2023/08/31 09:42:04;;;;;;;1.50;0.30;;;19.70;92.40;;;;;;5008140;28;20050;-90
2023/08/31 09:44:32;;;;;;;1.40;0.47;;;19.70;93.30;;;;;;4995002;28;20043;-90
2023/08/31 09:46:59;;;;;;;3.80;1.13;;;19.40;60.90;;;;;;4991965;28;20034;-89
2023/08/31 09:49:26;;;;;;;0.98;0.40;;;19.30;24.60;;;;;;4992168;28;20035;-89
2023/08/31 09:51:53;;;;;;;1.23;0.50;;;19.10;21.00;;;;;;4995467;28;20039;-90
2023/08/31 09:54:31;;;;;;;0.60;0.30;;;18.80;28.00;;;;;;4988738;28;20039;-87
2023/08/31 09:57:05;;;;;;;3.13;0.50;;;19.10;66.40;;;;;;4971962;28;20051;-87
2023/08/31 09:59:31;;;;;;;2.05;0.77;;;19.80;21.60;;;;;;4963957;28;20073;-91
2023/08/31 10:02:01;;;;;;;0.70;0.30;;;20.20;20.80;;;;;;4976326;28;20034;-95
2023/08/31 10:04:30;;;;;;;1.25;0.35;;;20.70;1.00;;;;;;4969491;28;20043;-89
2023/08/31 10:06:56;;;;;;;1.83;0.50;;;20.80;1.00;;;;;;4989787;28;20046;-88
2023/08/31 10:09:23;;;;;;;1.35;0.80;;;20.20;1.00;;;;;;4973157;28;20441;-86
2023/08/31 10:11:49;;;;;;;0.50;0.30;;;20.10;1.00;;;;;;4974659;28;20043;-87
2023/08/31 10:14:20;;;;;;;3.63;0.45;;;20.10;1.00;;;;;;4972093;28;20062;-87
2023/08/31 10:16:48;;;;;;;1.65;0.75;;;20.30;1.00;;;;;;4957886;28;20047;-88
2023/08/31 10:19:14;;;;;;;2.08;0.40;;;20.20;1.00;;;;;;4973180;28;20035;-85
2023/08/31 10:21:47;;;;;;;2.03;0.35;;;19.90;1.00;;;;;;4985853;28;20053;-87
2023/08/31 10:24:13;;;;;;;0.95;0.30;;;20.00;1.00;;;;;;4985476;28;20035;-90
2023/08/31 10:26:40;;;;;;;1.17;0.90;;;20.20;1.00;;;;;;4984840;28;20022;-89
2023/08/31 10:29:06;;;;;;;1.35;0.60;;;20.40;1.00;;;;;;4992262;28;20042;-88
2023/08/31 10:31:33;;;;;;;0.85;0.63;;;20.20;1.00;;;;;;4986925;28;20496;-88
2023/08/31 10:34:05;;;;;;;0.70;0.30;;;20.30;1.00;;;;;;4985401;28;20034;-85
2023/08/31 10:36:41;;;;;;;0.65;0.50;;;20.30;1.00;;;;;;4983037;28;20042;-85
2023/08/31 10:39:19;;;;;;;2.47;0.35;;;20.20;1.00;;;;;;4982533;28;20031;-85
2023/08/31 10:41:56;;;;;;;1.33;0.30;;;19.80;1.00;;;;;;4990521;28;20038;-84
2023/08/31 10:44:23;;;;;;;1.30;0.40;;;19.60;1.00;;;;;;4977852;28;20037;-88
2023/08/31 10:46:50;;;;;;;0.98;0.20;;;19.90;1.00;;;;;;4977939;28;20449;-86
2023/08/31 10:49:20;;;;;;;1.52;0.68;;;20.20;1.00;;;;;;4995131;28;20034;-86
2023/08/31 10:51:57;;;;;;;1.23;0.30;;;20.40;1.00;;;;;;4978272;28;20034;-86
2023/08/31 10:54:34;;;;;;;2.25;0.73;;;20.20;1.00;;;;;;4975815;28;20042;-88
2023/08/31 10:57:06;;;;;;;1.10;0.30;;;20.30;1.00;;;;;;4983899;28;20046;-89
2023/08/31 10:59:41;;;;;;;0.50;0.30;;;20.30;1.00;;;;;;4999438;28;20039;-86
2023/08/31 11:02:08;;;;;;;1.52;0.68;;;20.20;1.00;;;;;;4980862;28;20038;-83
2023/08/31 11:05:03;;;;;;;2.17;0.80;;;20.30;1.00;;;;;;4977283;28;20038;-87
2023/08/31 11:07:29;;;;;;;1.88;0.40;;;20.50;1.00;;;;;;4982193;28;20038;-87
2023/08/31 11:10:18;;;;;;;0.98;0.60;;;20.70;1.00;;;;;;4978368;28;20042;-84
2023/08/31 11:12:49;;;;;;;1.65;0.30;;;20.30;1.00;;;;;;4977475;28;20043;-87
2023/08/31 11:15:17;;;;;;;2.72;0.80;;;19.70;1.00;;;;;;4978323;28;20046;-89
2023/08/31 11:17:44;;;;;;;1.38;0.93;;;20.10;1.00;;;;;;4980362;28;20364;-88
2023/08/31 11:20:27;;;;;;;0.60;0.32;;;20.70;1.00;;;;;;4978490;28;20031;-88
2023/08/31 11:22:54;;;;;;;2.05;0.93;;;21.00;1.00;;;;;;4996283;28;20038;-89
2023/08/31 11:25:23;;;;;;;1.17;0.47;;;20.80;1.00;;;;;;4986840;28;20056;-90
2023/08/31 11:28:01;;;;;;;1.05;0.28;;;20.90;1.00;;;;;;4981246;28;20054;-86
2023/08/31 11:30:32;;;;;;;0.85;0.40;;;21.00;1.00;;;;;;4979677;28;20038;-88
2023/08/31 11:33:09;;;;;;;1.00;0.70;;;21.00;1.00;;;;;;4982521;28;20039;-92
2023/08/31 11:35:37;;;;;;;3.55;0.60;;;20.90;1.00;;;;;;4985647;28;20033;-88
2023/08/31 11:38:04;;;;;;;1.13;0.40;;;21.00;1.00;;;;;;4976789;28;20035;-91
2023/08/31 11:40:30;;;;;;;0.85;0.35;;;21.00;1.00;;;;;;4989908;28;20050;-86
2023/08/31 11:42:58;;;;;;;4.15;1.65;;;20.80;1.00;;;;;;4999805;28;20046;-88
2023/08/31 11:45:25;;;;;;;1.77;0.50;;;20.70;1.00;;;;;;4980171;28;20130;-85
2023/08/31 11:47:52;;;;;;;0.68;0.50;;;20.70;1.00;;;;;;4982848;28;20034;-87
2023/08/31 11:50:20;;;;;;;1.40;0.65;;;20.70;1.00;;;;;;4984015;28;20392;-91
2023/08/31 11:52:47;;;;;;;1.70;0.60;;;20.40;1.00;;;;;;4982156;28;20419;-88
2023/08/31 11:55:17;;;;;;;3.17;1.67;;;20.00;1.00;;;;;;4976054;28;20365;-87
2023/08/31 11:57:50;;;;;;;2.67;0.65;;;20.20;1.00;;;;;;4978444;28;20030;-86
2023/08/31 12:00:17;;;;;;;1.52;0.50;;;20.30;1.00;;;;;;4977936;28;20050;-86
2023/08/31 12:02:46;;;;;;;2.15;0.30;;;20.20;1.00;;;;;;4979610;28;20046;-89
2023/08/31 12:05:12;;;;;;;3.13;0.75;;;20.10;1.00;;;;;;4978785;28;20034;-88
2023/08/31 12:07:41;;;;;;;1.38;0.47;;;19.90;1.00;;;;;;4983014;28;20045;-86
2023/08/31 12:10:09;;;;;;;2.00;0.40;;;19.70;1.00;;;;;;4988527;28;20487;-87
2023/08/31 12:12:36;;;;;;;1.70;0.40;;;19.50;1.00;;;;;;4984839;28;20050;-88
2023/08/31 12:15:06;;;;;;;1.40;0.40;;;19.60;1.00;;;;;;4982700;28;20046;-85
2023/08/31 12:17:38;;;;;;;1.42;0.82;;;20.00;1.00;;;;;;4986810;28;20073;-88
2023/08/31 12:20:05;;;;;;;1.60;0.57;;;20.10;1.00;;;;;;4998214;28;20034;-88
2023/08/31 12:22:35;;;;;;;2.08;0.73;;;20.00;1.00;;;;;;4998656;28;20034;-86
2023/08/31 12:25:01;;;;;;;1.38;0.50;;;20.10;1.00;;;;;;4991210;28;20039;-90
2023/08/31 12:27:27;;;;;;;3.53;1.55;;;20.10;1.00;;;;;;4982827;28;20456;-87
2023/08/31 12:29:54;;;;;;;3.03;0.90;;;19.90;1.00;;;;;;4977583;28;20035;-87
2023/08/31 12:32:20;;;;;;;2.10;1.00;;;20.50;1.00;;;;;;4982600;28;20039;-86
2023/08/31 12:34:46;;;;;;;1.58;0.57;;;20.70;1.00;;;;;;4980812;28;20045;-88
2023/08/31 12:37:12;;;;;;;0.68;0.38;;;20.90;1.00;;;;;;4978860;28;20388;-86
2023/08/31 12:39:42;;;;;;;1.50;1.35;;;21.10;1.00;;;;;;4978417;28;20528;-85
2023/08/31 12:42:08;;;;;;;3.53;0.77;;;21.00;1.00;;;;;;4977029;28;20039;-86
2023/08/31 12:44:34;;;;;;;2.85;0.57;;;20.70;1.00;;;;;;4978512;28;20261;-87
2023/08/31 12:47:01;;;;;;;1.38;0.68;;;20.70;1.00;;;;;;4974789;28;20120;-86
2023/08/31 12:49:27;;;;;;;0.77;0.45;;;20.90;1.00;;;;;;4984348;28;20058;-85
2023/08/31 12:51:53;;;;;;;4.55;2.70;;;20.90;1.00;;;;;;4984694;28;20424;-87
2023/08/31 12:54:19;;;;;;;3.10;1.23;;;20.90;1.00;;;;;;4979700;28;20049;-87
2023/08/31 12:56:45;;;;;;;1.05;0.43;;;20.60;1.00;;;;;;4977383;28;20037;-87